Time;durP1;ratioP1;P1;durP2;ratioP2;P2;SDS_P1;SDS_P2;PMS_P1;PMS_P2;Temp;Humidity;BMP_temperature;BMP_pressure;BME280_temperature;BME280_humidity;BME280_pressure;Samples;Min_cycle;Max_cycle;Signal;HPM_P1;HPM_P2
2022/12/08 00:02:16;;;;;;;;;;;;;;;1.39;100.00;100844.16;5063019;28;19955;-73
2022/12/08 00:10:10;;;;;;;;;;;;;;;1.41;100.00;100841.53;5064364;28;19925;-73
2022/12/08 00:12:35;;;;;;;;;;;;;;;1.45;100.00;100853.69;5063676;28;19982;-73
2022/12/08 00:15:01;;;;;;;;;;;;;;;1.49;100.00;100876.28;5042360;28;19935;-72
2022/12/08 00:17:26;;;;;;;;;;;;;;;1.52;100.00;100864.94;5064601;28;19928;-72
2022/12/08 00:19:51;;;;;;;;;;;;;;;1.51;100.00;100860.63;5065311;28;19928;-72
2022/12/08 00:22:18;;;;;;;;;;;;;;;1.52;100.00;100864.94;5063660;28;20214;-72
2022/12/08 00:24:45;;;;;;;;;;;;;;;1.51;100.00;100863.22;5063009;28;20446;-73
2022/12/08 00:27:11;;;;;;;;;;;;;;;1.51;100.00;100858.84;5065079;28;19935;-73
2022/12/08 00:29:37;;;;;;;;;;;;;;;1.49;100.00;100860.63;5040345;28;19932;-73
2022/12/08 00:32:02;;;;;;;;;;;;;;;1.47;100.00;100852.78;5023015;28;19952;-72
2022/12/08 00:34:29;;;;;;;;;;;;;;;1.46;100.00;100848.44;5020861;28;20549;-73
2022/12/08 00:36:54;;;;;;;;;;;;;;;1.46;100.00;100844.97;5022728;28;19933;-73
2022/12/08 00:39:19;;;;;;;;;;;;;;;1.45;100.00;100865.00;5022673;28;20310;-73
2022/12/08 00:44:29;;;;;;;;;;;;;;;1.41;100.00;100845.00;5023255;28;19940;-73
2022/12/08 00:46:54;;;;;;;;;;;;;;;1.40;100.00;100837.19;5019719;28;19968;-74
2022/12/08 00:49:19;;;;;;;;;;;;;;;1.38;100.00;100832.00;5020256;28;19933;-73
2022/12/08 00:51:45;;;;;;;;;;;;;;;1.38;100.00;100820.69;5021052;28;19931;-73
2022/12/08 00:54:10;;;;;;;;;;;;;;;1.37;100.00;100818.94;5003581;28;19952;-73
2022/12/08 00:56:36;;;;;;;;;;;;;;;1.36;100.00;100818.06;5019262;28;19933;-73
2022/12/08 00:59:02;;;;;;;;;;;;;;;1.34;100.00;100814.63;5023918;28;20453;-73
2022/12/08 01:01:28;;;;;;;;;;;;;;;1.34;100.00;100836.38;5027823;28;19929;-73
2022/12/08 01:03:53;;;;;;;;;;;;;;;1.36;100.00;100836.34;5028056;28;19932;-73
2022/12/08 01:06:18;;;;;;;;;;;;;;;1.35;100.00;100838.09;5021506;28;19929;-74
2022/12/08 01:08:44;;;;;;;;;;;;;;;1.33;100.00;100829.44;5022441;28;19932;-74
2022/12/08 01:11:16;;;;;;;;;;;;;;;1.32;100.00;100821.59;5021189;28;19929;-74
2022/12/08 01:13:42;;;;;;;;;;;;;;;1.31;100.00;100814.66;5020995;28;19925;-74
2022/12/08 01:16:07;;;;;;;;;;;;;;;1.30;100.00;100805.09;5022325;28;19920;-74
2022/12/08 01:18:33;;;;;;;;;;;;;;;1.27;100.00;100795.56;5023618;28;19936;-74
2022/12/08 01:21:04;;;;;;;;;;;;;;;1.27;100.00;100805.09;5023605;28;19964;-74
2022/12/08 01:23:30;;;;;;;;;;;;;;;1.25;100.00;100794.69;5022358;28;19959;-74
2022/12/08 01:25:59;;;;;;;;;;;;;;;1.26;100.00;100790.34;5023236;28;21474;-74
2022/12/08 01:28:25;;;;;;;;;;;;;;;1.25;100.00;100792.06;5038540;28;20062;-74
2022/12/08 01:30:50;;;;;;;;;;;;;;;1.22;100.00;100792.97;5062927;28;19932;-74
2022/12/08 01:33:16;;;;;;;;;;;;;;;1.21;100.00;100788.63;5061469;28;20461;-75
2022/12/08 01:35:41;;;;;;;;;;;;;;;1.18;100.00;100788.66;5061029;28;19956;-74
2022/12/08 01:38:06;;;;;;;;;;;;;;;1.17;100.00;100789.53;5061125;28;19932;-74
2022/12/08 01:40:32;;;;;;;;;;;;;;;1.15;100.00;100793.03;5062941;28;19933;-74
2022/12/08 01:42:57;;;;;;;;;;;;;;;1.12;100.00;100783.47;5061999;28;19963;-73
2022/12/08 01:45:27;;;;;;;;;;;;;;;1.09;100.00;100778.28;5062732;28;19940;-74
2022/12/08 01:48:12;;;;;;;;;;;;;;;1.08;100.00;100781.75;5064775;28;19928;-73
2022/12/08 01:50:38;;;;;;;;;;;;;;;1.07;100.00;100787.84;5064852;28;20527;-75
2022/12/08 01:53:06;;;;;;;;;;;;;;;1.06;100.00;100794.84;5046843;28;20529;-73
2022/12/08 01:55:34;;;;;;;;;;;;;;;1.07;100.00;100793.06;5056368;28;20023;-75
2022/12/08 01:58:02;;;;;;;;;;;;;;;1.06;100.00;100800.06;5067279;28;19932;-75
2022/12/08 02:00:27;;;;;;;;;;;;;;;1.07;100.00;100793.94;5066288;28;20494;-74
2022/12/08 02:02:56;;;;;;;;;;;;;;;1.08;100.00;100800.00;5065477;28;19932;-75
2022/12/08 02:05:23;;;;;;;;;;;;;;;1.08;100.00;100787.84;5045291;28;19928;-75
2022/12/08 02:07:48;;;;;;;;;;;;;;;1.07;100.00;100774.81;5045657;28;19929;-75
2022/12/08 02:10:17;;;;;;;;;;;;;;;1.06;100.00;100768.75;5056390;28;20445;-74
2022/12/08 02:12:42;;;;;;;;;;;;;;;1.06;100.00;100773.09;5045824;28;19998;-75
2022/12/08 02:15:08;;;;;;;;;;;;;;;1.04;100.00;100775.69;5065364;28;20387;-74
2022/12/08 02:17:53;;;;;;;;;;;;;;;1.01;100.00;100767.91;5056499;28;20371;-74
2022/12/08 02:20:33;;;;;;;;;;;;;;;0.97;100.00;100757.53;5047588;28;20295;-74
2022/12/08 02:23:14;;;;;;;;;;;;;;;0.91;100.00;100753.19;5049285;28;19959;-74
2022/12/08 02:25:39;;;;;;;;;;;;;;;0.85;100.00;100743.69;5066903;28;20531;-74
2022/12/08 02:28:23;;;;;;;;;;;;;;;0.83;100.00;100740.22;5056736;28;19931;-73
2022/12/08 02:30:50;;;;;;;;;;;;;;;0.82;100.00;100748.94;5067195;28;20295;-73
2022/12/08 02:33:21;;;;;;;;;;;;;;;0.81;100.00;100755.00;5047016;28;19930;-74
2022/12/08 02:36:03;;;;;;;;;;;;;;;0.84;100.00;100761.94;5046956;28;19939;-73
2022/12/08 02:38:44;;;;;;;;;;;;;;;0.87;100.00;100778.41;5056064;28;19924;-73
2022/12/08 02:41:23;;;;;;;;;;;;;;;0.89;100.00;100784.50;5066579;28;20019;-74
2022/12/08 02:43:51;;;;;;;;;;;;;;;0.87;100.00;100798.44;5049451;28;20430;-73
2022/12/08 02:46:21;;;;;;;;;;;;;;;0.85;100.00;100785.41;5051991;28;20038;-74
2022/12/08 02:48:47;;;;;;;;;;;;;;;0.84;100.00;100773.25;5055224;28;19943;-75
2022/12/08 02:51:12;;;;;;;;;;;;;;;0.84;100.00;100778.44;5050280;28;19974;-74
2022/12/08 02:53:37;;;;;;;;;;;;;;;0.85;100.00;100769.75;5064990;28;19928;-74
2022/12/08 02:56:08;;;;;;;;;;;;;;;0.86;100.00;100768.03;5037514;28;19966;-74
2022/12/08 02:58:37;;;;;;;;;;;;;;;0.86;100.00;100768.03;5048917;28;19931;-75
2022/12/08 03:01:22;;;;;;;;;;;;;;;0.83;100.00;100755.00;5053968;28;19946;-74
2022/12/08 03:03:52;;;;;;;;;;;;;;;0.80;100.00;100750.66;5065943;28;20287;-75
2022/12/08 03:06:18;;;;;;;;;;;;;;;0.78;100.00;100742.88;5047234;28;20292;-74
2022/12/08 03:08:50;;;;;;;;;;;;;;;0.75;100.00;100726.38;5063588;28;19931;-74
2022/12/08 03:11:19;;;;;;;;;;;;;;;0.73;100.00;100721.19;5051740;28;19928;-74
2022/12/08 03:13:45;;;;;;;;;;;;;;;0.71;100.00;100714.25;5048533;28;20394;-74
2022/12/08 03:16:12;;;;;;;;;;;;;;;0.69;100.00;100713.41;5045060;28;19941;-74
2022/12/08 03:18:39;;;;;;;;;;;;;;;0.69;100.00;100710.78;5055215;28;19963;-74
2022/12/08 03:21:04;;;;;;;;;;;;;;;0.65;100.00;100705.59;5045452;28;20323;-74
2022/12/08 03:23:30;;;;;;;;;;;;;;;0.63;100.00;100702.13;5045912;28;20313;-73
2022/12/08 03:25:56;;;;;;;;;;;;;;;0.62;100.00;100700.41;5049073;28;19935;-73
2022/12/08 03:28:22;;;;;;;;;;;;;;;0.60;100.00;100691.72;5048868;28;20368;-73
2022/12/08 03:30:47;;;;;;;;;;;;;;;0.57;100.00;100688.25;5065443;28;19924;-73
2022/12/08 03:33:22;;;;;;;;;;;;;;;0.53;100.00;100692.63;5046106;28;20501;-73
2022/12/08 03:35:48;;;;;;;;;;;;;;;0.51;100.00;100687.44;5043962;28;19925;-73
2022/12/08 03:38:14;;;;;;;;;;;;;;;0.50;100.00;100690.06;5044248;28;19924;-74
2022/12/08 03:40:39;;;;;;;;;;;;;;;0.49;100.00;100683.13;5063757;28;19940;-74
2022/12/08 03:43:05;;;;;;;;;;;;;;;0.48;100.00;100686.59;5032611;28;20188;-74
2022/12/08 03:45:30;;;;;;;;;;;;;;;0.47;100.00;100679.63;5045413;28;19924;-74
2022/12/08 03:47:56;;;;;;;;;;;;;;;0.46;100.00;100670.09;5044048;28;19931;-74
2022/12/08 03:50:21;;;;;;;;;;;;;;;0.45;100.00;100671.84;5045557;28;19924;-74
2022/12/08 03:52:46;;;;;;;;;;;;;;;0.45;100.00;100676.19;5064871;28;19949;-74
2022/12/08 03:55:12;;;;;;;;;;;;;;;0.45;100.00;100684.00;5043368;28;19927;-73
2022/12/08 03:57:37;;;;;;;;;;;;;;;0.44;100.00;100684.88;5063930;28;20485;-73
2022/12/08 04:00:04;;;;;;;;;;;;;;;0.43;100.00;100683.16;5063885;28;20015;-74
2022/12/08 04:02:29;;;;;;;;;;;;;;;0.43;100.00;100670.97;5062990;28;21489;-73
2022/12/08 04:04:54;;;;;;;;;;;;;;;0.42;100.00;100677.06;5063113;28;19938;-73
2022/12/08 04:07:20;;;;;;;;;;;;;;;0.42;100.00;100676.22;5063449;28;19932;-74
2022/12/08 04:09:45;;;;;;;;;;;;;;;0.40;100.00;100677.06;5062920;28;20375;-74
2022/12/08 04:12:11;;;;;;;;;;;;;;;0.39;100.00;100672.72;5044651;28;19928;-74
2022/12/08 04:14:36;;;;;;;;;;;;;;;0.40;100.00;100673.63;5048119;28;19978;-74
2022/12/08 04:17:01;;;;;;;;;;;;;;;0.39;100.00;100671.88;5062157;28;19931;-74
2022/12/08 04:19:27;;;;;;;;;;;;;;;0.39;100.00;100669.28;5043490;28;19934;-73
2022/12/08 04:21:52;;;;;;;;;;;;;;;0.38;100.00;100671.00;5062865;28;19938;-74
2022/12/08 04:24:18;;;;;;;;;;;;;;;0.39;100.00;100666.69;5042968;28;19950;-74
2022/12/08 04:26:43;;;;;;;;;;;;;;;0.39;100.00;100659.72;5063136;28;20341;-73
2022/12/08 04:29:08;;;;;;;;;;;;;;;0.39;100.00;100662.31;5027237;28;21523;-74
2022/12/08 04:31:34;;;;;;;;;;;;;;;0.40;100.00;100657.97;5062874;28;19971;-73
2022/12/08 04:33:59;;;;;;;;;;;;;;;0.39;100.00;100654.50;5064360;28;19924;-74
2022/12/08 04:36:24;;;;;;;;;;;;;;;0.39;100.00;100657.09;5060307;28;21543;-73
2022/12/08 04:38:50;;;;;;;;;;;;;;;0.40;100.00;100658.84;5063916;28;20493;-74
2022/12/08 04:41:15;;;;;;;;;;;;;;;0.42;100.00;100652.78;5064563;28;20392;-74
2022/12/08 04:43:43;;;;;;;;;;;;;;;0.45;100.00;100656.22;5062878;28;19924;-74
2022/12/08 04:46:08;;;;;;;;;;;;;;;0.48;100.00;100652.75;5063073;28;19940;-73
2022/12/08 04:48:35;;;;;;;;;;;;;;;0.52;100.00;100657.03;5045416;28;19952;-73
2022/12/08 04:51:00;;;;;;;;;;;;;;;0.54;100.00;100669.19;5032617;28;20306;-73
2022/12/08 04:53:26;;;;;;;;;;;;;;;0.57;100.00;100657.00;5064249;28;19932;-73
2022/12/08 04:55:51;;;;;;;;;;;;;;;0.59;100.00;100653.50;5064961;28;19928;-73
2022/12/08 04:58:18;;;;;;;;;;;;;;;0.60;100.00;100655.22;5044923;28;19935;-74
2022/12/08 05:00:44;;;;;;;;;;;;;;;0.61;100.00;100656.97;5063429;28;20453;-74
2022/12/08 05:03:09;;;;;;;;;;;;;;;0.64;100.00;100650.84;5064561;28;19981;-74
2022/12/08 05:05:34;;;;;;;;;;;;;;;0.65;100.00;100656.06;5062278;28;19928;-74
2022/12/08 05:08:00;;;;;;;;;;;;;;;0.66;100.00;100663.00;5064247;28;20334;-74
2022/12/08 05:10:25;;;;;;;;;;;;;;;0.66;100.00;100663.00;5063443;28;19932;-74
2022/12/08 05:12:51;;;;;;;;;;;;;;;0.69;100.00;100653.47;5052131;28;20349;-74
2022/12/08 05:15:16;;;;;;;;;;;;;;;0.67;100.00;100662.13;5060128;28;19932;-74
2022/12/08 05:17:42;;;;;;;;;;;;;;;0.67;100.00;100662.13;5061380;28;19967;-73
2022/12/08 05:20:07;;;;;;;;;;;;;;;0.65;100.00;100656.06;5052557;28;19928;-74
2022/12/08 05:22:33;;;;;;;;;;;;;;;0.64;100.00;100662.16;5066610;28;19936;-74
2022/12/08 05:24:58;;;;;;;;;;;;;;;0.65;100.00;100666.50;5063791;28;20295;-73
2022/12/08 05:27:23;;;;;;;;;;;;;;;0.63;100.00;100652.63;5067879;28;19954;-73
2022/12/08 05:29:49;;;;;;;;;;;;;;;0.64;100.00;100654.34;5039638;28;19963;-73
2022/12/08 05:32:15;;;;;;;;;;;;;;;0.65;100.00;100652.63;5066996;28;19932;-73
2022/12/08 05:34:40;;;;;;;;;;;;;;;0.65;100.00;100652.63;5054754;28;19932;-74
2022/12/08 05:37:05;;;;;;;;;;;;;;;0.65;100.00;100650.84;5065912;28;19924;-73
2022/12/08 05:39:31;;;;;;;;;;;;;;;0.64;100.00;100656.06;5066060;28;19947;-74
2022/12/08 05:41:56;;;;;;;;;;;;;;;0.63;100.00;100659.56;5064590;28;19928;-74
2022/12/08 05:44:21;;;;;;;;;;;;;;;0.63;100.00;100662.16;5067666;28;19928;-74
2022/12/08 05:46:47;;;;;;;;;;;;;;;0.63;100.00;100659.56;5065800;28;19936;-73
2022/12/08 05:49:12;;;;;;;;;;;;;;;0.62;100.00;100661.31;5067002;28;19944;-73
2022/12/08 05:51:37;;;;;;;;;;;;;;;0.61;100.00;100656.97;5036647;28;19928;-74
2022/12/08 05:54:03;;;;;;;;;;;;;;;0.62;100.00;100663.03;5055579;28;20451;-74
2022/12/08 05:56:28;;;;;;;;;;;;;;;0.61;100.00;100662.16;5065515;28;19979;-74
2022/12/08 05:58:54;;;;;;;;;;;;;;;0.63;100.00;100660.44;5067822;28;20001;-73
2022/12/08 06:01:23;;;;;;;;;;;;;;;0.65;100.00;100657.84;5067124;28;20527;-73
2022/12/08 06:03:49;;;;;;;;;;;;;;;0.65;100.00;100660.44;5067860;28;19929;-74
2022/12/08 06:06:14;;;;;;;;;;;;;;;0.66;100.00;100660.41;5065481;28;20544;-74
2022/12/08 06:08:39;;;;;;;;;;;;;;;0.65;100.00;100653.47;5065297;28;19931;-74
2022/12/08 06:11:05;;;;;;;;;;;;;;;0.64;100.00;100649.13;5065235;28;19928;-73
2022/12/08 06:13:30;;;;;;;;;;;;;;;0.64;100.00;100646.53;5067567;28;20489;-73
2022/12/08 06:16:01;;;;;;;;;;;;;;;0.64;100.00;100641.31;5065704;28;20616;-74
2022/12/08 06:18:27;;;;;;;;;;;;;;;0.62;100.00;100637.88;5065715;28;20372;-73
2022/12/08 06:21:00;;;;;;;;;;;;;;;0.61;100.00;100637.88;5067057;28;19978;-74
2022/12/08 06:23:25;;;;;;;;;;;;;;;0.59;100.00;100632.66;5066253;28;20294;-73
2022/12/08 06:25:51;;;;;;;;;;;;;;;0.57;100.00;100637.03;5064873;28;19929;-74
2022/12/08 06:28:16;;;;;;;;;;;;;;;0.55;100.00;100646.59;5062656;28;19971;-74
2022/12/08 06:30:41;;;;;;;;;;;;;;;0.54;100.00;100647.44;5065528;28;20533;-74
2022/12/08 06:33:07;;;;;;;;;;;;;;;0.51;100.00;100650.09;5064121;28;20445;-73
2022/12/08 06:35:32;;;;;;;;;;;;;;;0.49;100.00;100641.44;5065894;28;19935;-74
2022/12/08 06:37:58;;;;;;;;;;;;;;;0.44;100.00;100649.25;5064905;28;20470;-74
2022/12/08 06:40:23;;;;;;;;;;;;;;;0.42;100.00;100651.00;5046242;28;19925;-74
2022/12/08 06:42:48;;;;;;;;;;;;;;;0.36;100.00;100641.50;5064655;28;19928;-74
2022/12/08 06:45:14;;;;;;;;;;;;;;;0.32;100.00;100647.59;5045950;28;19926;-73
2022/12/08 06:47:40;;;;;;;;;;;;;;;0.28;100.00;100647.63;5043860;28;19924;-74
2022/12/08 06:50:06;;;;;;;;;;;;;;;0.22;100.00;100649.38;5064502;28;19929;-73
2022/12/08 06:52:31;;;;;;;;;;;;;;;0.19;100.00;100651.16;5064781;28;19924;-74
2022/12/08 06:54:56;;;;;;;;;;;;;;;0.14;100.00;100648.56;5066417;28;19940;-74
2022/12/08 06:57:23;;;;;;;;;;;;;;;0.08;100.00;100652.09;5063642;28;20011;-74
2022/12/08 06:59:48;;;;;;;;;;;;;;;0.04;100.00;100652.97;5064908;28;19932;-74
2022/12/08 07:02:13;;;;;;;;;;;;;;;-0.01;100.00;100654.72;5047854;28;20426;-74
2022/12/08 07:04:39;;;;;;;;;;;;;;;-0.05;100.00;100648.66;5066005;28;19967;-73
2022/12/08 07:07:04;;;;;;;;;;;;;;;-0.08;100.00;100650.41;5061187;28;19979;-74
2022/12/08 07:09:29;;;;;;;;;;;;;;;-0.12;100.00;100657.38;5065254;28;19939;-73
2022/12/08 07:11:55;;;;;;;;;;;;;;;-0.17;100.00;100657.38;5065739;28;20353;-74
2022/12/08 07:14:23;;;;;;;;;;;;;;;-0.21;100.00;100647.84;5064372;28;19928;-73
2022/12/08 07:16:49;;;;;;;;;;;;;;;-0.26;100.00;100662.66;5064525;28;19954;-74
2022/12/08 07:19:14;;;;;;;;;;;;;;;-0.31;100.00;100661.78;5044165;28;20123;-73
2022/12/08 07:21:40;;;;;;;;;;;;;;;-0.35;100.00;100662.66;5063438;28;19940;-73
2022/12/08 07:24:05;;;;;;;;;;;;;;;-0.38;100.00;100663.53;5064678;28;19939;-74
2022/12/08 07:26:31;;;;;;;;;;;;;;;-0.40;100.00;100667.03;5064524;28;19928;-73
2022/12/08 07:28:56;;;;;;;;;;;;;;;-0.42;100.00;100665.28;5054134;28;20925;-74
2022/12/08 07:31:23;;;;;;;;;;;;;;;-0.43;100.00;100675.69;5065235;28;19946;-73
2022/12/08 07:33:49;;;;;;;;;;;;;;;-0.43;100.00;100671.34;5037159;28;19928;-74
2022/12/08 07:36:14;;;;;;;;;;;;;;;-0.43;100.00;100665.28;5047127;28;19940;-74
2022/12/08 07:38:40;;;;;;;;;;;;;;;-0.46;100.00;100671.38;5063330;28;19959;-74
2022/12/08 07:41:10;;;;;;;;;;;;;;;-0.47;100.00;100669.66;5045710;28;19924;-73
2022/12/08 07:43:35;;;;;;;;;;;;;;;-0.47;100.00;100666.16;5048094;28;19935;-74
2022/12/08 07:46:00;;;;;;;;;;;;;;;-0.49;100.00;100662.72;5046373;28;20384;-74
2022/12/08 07:48:26;;;;;;;;;;;;;;;-0.52;100.00;100671.38;5063316;28;19968;-74
2022/12/08 07:50:58;;;;;;;;;;;;;;;-0.53;100.00;100667.06;5065189;28;19932;-74
2022/12/08 07:53:23;;;;;;;;;;;;;;;-0.56;100.00;100661.84;5065654;28;19932;-74
2022/12/08 07:55:49;;;;;;;;;;;;;;;-0.58;100.00;100661.88;5065520;28;19975;-74
2022/12/08 07:58:14;;;;;;;;;;;;;;;-0.59;100.00;100665.31;5062813;28;19928;-74
2022/12/08 08:00:40;;;;;;;;;;;;;;;-0.62;100.00;100667.94;5063792;28;19936;-74
2022/12/08 08:03:07;;;;;;;;;;;;;;;-0.63;100.00;100663.59;5064537;28;20378;-74
2022/12/08 08:05:32;;;;;;;;;;;;;;;-0.64;100.00;100671.41;5062154;28;20028;-74
2022/12/08 08:07:58;;;;;;;;;;;;;;;-0.67;100.00;100661.88;5046902;28;19939;-74
2022/12/08 08:10:23;;;;;;;;;;;;;;;-0.69;100.00;100664.47;5062714;28;19989;-73
2022/12/08 08:12:49;;;;;;;;;;;;;;;-0.69;100.00;100663.63;5064579;28;19935;-73
2022/12/08 08:15:14;;;;;;;;;;;;;;;-0.67;100.00;100663.63;5042378;28;20556;-73
2022/12/08 08:17:40;;;;;;;;;;;;;;;-0.65;100.00;100654.06;5064793;28;19932;-73
2022/12/08 08:20:06;;;;;;;;;;;;;;;-0.63;100.00;100653.19;5064426;28;20031;-73
2022/12/08 08:22:31;;;;;;;;;;;;;;;-0.61;100.00;100655.81;5040695;28;19928;-74
2022/12/08 08:24:57;;;;;;;;;;;;;;;-0.58;100.00;100661.00;5052329;28;20378;-73
2022/12/08 08:27:23;;;;;;;;;;;;;;;-0.56;100.00;100662.72;5045322;28;19928;-74
2022/12/08 08:29:49;;;;;;;;;;;;;;;-0.55;100.00;100663.56;5063360;28;20043;-74
2022/12/08 08:32:15;;;;;;;;;;;;;;;-0.53;100.00;100659.25;5034546;28;19924;-74
2022/12/08 08:34:40;;;;;;;;;;;;;;;-0.53;100.00;100656.66;5064381;28;20323;-73
2022/12/08 08:37:05;;;;;;;;;;;;;;;-0.50;100.00;100658.38;5065223;28;19936;-73
2022/12/08 08:39:31;;;;;;;;;;;;;;;-0.49;100.00;100662.72;5065163;28;19935;-73
2022/12/08 08:41:56;;;;;;;;;;;;;;;-0.47;100.00;100661.84;5059966;28;19924;-73
2022/12/08 08:44:22;;;;;;;;;;;;;;;-0.44;100.00;100664.41;5042358;28;20360;-73
2022/12/08 08:46:47;;;;;;;;;;;;;;;-0.38;100.00;100668.72;5042666;28;19923;-74
2022/12/08 08:49:12;;;;;;;;;;;;;;;-0.31;100.00;100669.59;5059097;28;19963;-74
2022/12/08 08:51:38;;;;;;;;;;;;;;;-0.24;100.00;100670.41;5060419;28;20022;-74
2022/12/08 08:54:03;;;;;;;;;;;;;;;-0.17;100.00;100665.19;5061625;28;20087;-76
2022/12/08 08:56:29;;;;;;;;;;;;;;;-0.10;100.00;100673.00;5061410;28;19935;-75
2022/12/08 08:58:54;;;;;;;;;;;;;;;-0.05;100.00;100666.88;5058850;28;19924;-74
2022/12/08 09:01:22;;;;;;;;;;;;;;;0.00;100.00;100672.09;5063235;28;19963;-74
2022/12/08 09:03:47;;;;;;;;;;;;;;;0.03;100.00;100666.84;5062349;28;21512;-74
2022/12/08 09:06:13;;;;;;;;;;;;;;;0.04;100.00;100671.19;5044500;28;20416;-74
2022/12/08 09:08:38;;;;;;;;;;;;;;;0.04;100.00;100673.78;5063300;28;19936;-74
2022/12/08 09:11:04;;;;;;;;;;;;;;;0.05;100.00;100669.47;5042568;28;20016;-73
2022/12/08 09:13:29;;;;;;;;;;;;;;;0.05;100.00;100678.13;5044110;28;19929;-74
2022/12/08 09:15:55;;;;;;;;;;;;;;;0.04;100.00;100676.41;5063494;28;20011;-74
2022/12/08 09:18:20;;;;;;;;;;;;;;;0.03;100.00;100674.66;5063818;28;20387;-74
2022/12/08 09:20:45;;;;;;;;;;;;;;;0.03;100.00;100674.66;5062452;28;20065;-74
2022/12/08 09:23:11;;;;;;;;;;;;;;;0.04;100.00;100679.00;5057640;28;19932;-74
2022/12/08 09:25:37;;;;;;;;;;;;;;;0.04;100.00;100681.59;5041742;28;19977;-74
2022/12/08 09:28:02;;;;;;;;;;;;;;;0.05;100.00;100687.69;5036562;28;19928;-73
2022/12/08 09:30:28;;;;;;;;;;;;;;;0.05;100.00;100683.31;5062851;28;19960;-74
2022/12/08 09:32:53;;;;;;;;;;;;;;;0.07;100.00;100683.31;5062920;28;21427;-74
2022/12/08 09:35:18;;;;;;;;;;;;;;;0.10;100.00;100675.50;5062183;28;19932;-74
2022/12/08 09:37:44;;;;;;;;;;;;;;;0.11;100.00;100678.09;5044223;28;20454;-74
2022/12/08 09:40:10;;;;;;;;;;;;;;;0.15;100.00;100673.72;5039876;28;20383;-74
2022/12/08 09:42:42;;;;;;;;;;;;;;;0.23;100.00;100684.13;5044929;28;19924;-74
2022/12/08 09:45:11;;;;;;;;;;;;;;;0.29;100.00;100681.50;5042546;28;20311;-73
2022/12/08 09:47:44;;;;;;;;;;;;;;;0.35;100.00;100676.25;5062452;28;20295;-73
2022/12/08 09:50:21;;;;;;;;;;;;;;;0.43;100.00;100673.59;5063513;28;19965;-74
2022/12/08 09:53:06;;;;;;;;;;;;;;;0.52;100.00;100677.88;5044361;28;19955;-73
2022/12/08 09:55:45;;;;;;;;;;;;;;;0.60;100.00;100660.44;5042611;28;19920;-74
2022/12/08 09:58:19;;;;;;;;;;;;;;;0.65;100.00;100666.50;5063267;28;19954;-73
2022/12/08 10:00:44;;;;;;;;;;;;;;;0.69;100.00;100669.09;5051618;28;19928;-73
2022/12/08 10:03:10;;;;;;;;;;;;;;;0.72;100.00;100666.44;5061058;28;19928;-74
2022/12/08 10:05:36;;;;;;;;;;;;;;;0.76;100.00;100665.56;5061701;28;19936;-74
2022/12/08 10:08:05;;;;;;;;;;;;;;;0.80;100.00;100677.69;5048740;28;19976;-74
2022/12/08 10:10:38;;;;;;;;;;;;;;;0.82;100.00;100665.53;5054661;28;19936;-74
2022/12/08 10:13:22;;;;;;;;;;;;;;;0.84;100.00;100662.88;5046975;28;20342;-74
2022/12/08 10:15:58;;;;;;;;;;;;;;;0.87;100.00;100663.72;5066842;28;21413;-74
2022/12/08 10:18:28;;;;;;;;;;;;;;;0.90;100.00;100662.84;5065822;28;20390;-73
2022/12/08 10:20:53;;;;;;;;;;;;;;;0.91;100.00;100664.56;5067243;28;19931;-73
2022/12/08 10:23:18;;;;;;;;;;;;;;;0.93;100.00;100668.88;5044749;28;19975;-73
2022/12/08 10:25:45;;;;;;;;;;;;;;;0.96;100.00;100672.38;5061030;28;19928;-73
2022/12/08 10:28:11;;;;;;;;;;;;;;;1.00;100.00;100674.94;5064278;28;19987;-74
2022/12/08 10:30:36;;;;;;;;;;;;;;;1.07;100.00;100673.13;5045122;28;20039;-74
2022/12/08 10:33:02;;;;;;;;;;;;;;;1.15;100.00;100673.06;5055605;28;19929;-74
2022/12/08 10:35:47;;;;;;;;;;;;;;;1.18;100.00;100666.06;5047063;28;20397;-74
2022/12/08 10:38:20;;;;;;;;;;;;;;;1.24;100.00;100667.75;5066167;28;20007;-74
2022/12/08 10:40:46;;;;;;;;;;;;;;;1.27;100.00;100672.97;5066447;28;19924;-74
2022/12/08 10:43:16;;;;;;;;;;;;;;;1.31;100.00;100673.78;5063711;28;20389;-74
2022/12/08 10:45:42;;;;;;;;;;;;;;;1.33;100.00;100670.28;5044190;28;19935;-74
2022/12/08 10:48:21;;;;;;;;;;;;;;;1.35;100.00;100675.47;5044995;28;20032;-74
2022/12/08 10:50:56;;;;;;;;;;;;;;;1.31;100.00;100671.19;5043082;28;20390;-74
2022/12/08 10:53:23;;;;;;;;;;;;;;;1.25;100.00;100674.69;5046741;28;19924;-74
2022/12/08 10:56:01;;;;;;;;;;;;;;;1.20;100.00;100666.06;5046774;28;19924;-74
2022/12/08 10:58:27;;;;;;;;;;;;;;;1.15;100.00;100666.09;5064309;28;19931;-74
2022/12/08 11:00:56;;;;;;;;;;;;;;;1.09;100.00;100658.31;5064640;28;19960;-74
2022/12/08 11:03:42;;;;;;;;;;;;;;;1.04;100.00;100660.13;5066610;28;19947;-74
2022/12/08 11:06:12;;;;;;;;;;;;;;;1.02;100.00;100656.63;5026690;28;19932;-74
2022/12/08 11:08:48;;;;;;;;;;;;;;;0.99;100.00;100660.16;5045930;28;19928;-74
2022/12/08 11:11:13;;;;;;;;;;;;;;;1.01;100.00;100661.00;5050027;28;20019;-74
2022/12/08 11:13:39;;;;;;;;;;;;;;;1.03;100.00;100659.25;5048317;28;20341;-75
2022/12/08 11:16:05;;;;;;;;;;;;;;;1.08;100.00;100667.03;5049102;28;19932;-74
2022/12/08 11:18:38;;;;;;;;;;;;;;;1.12;100.00;100671.34;5044284;28;19971;-75
2022/12/08 11:21:09;;;;;;;;;;;;;;;1.16;100.00;100660.03;5043243;28;19928;-74
2022/12/08 11:23:35;;;;;;;;;;;;;;;1.18;100.00;100653.03;5053893;28;19928;-74
2022/12/08 11:26:02;;;;;;;;;;;;;;;1.21;100.00;100653.00;5045627;28;19928;-74
2022/12/08 11:28:27;;;;;;;;;;;;;;;1.25;100.00;100647.75;5055731;28;20375;-74
2022/12/08 11:30:57;;;;;;;;;;;;;;;1.26;100.00;100644.28;5044792;28;19935;-74
2022/12/08 11:33:24;;;;;;;;;;;;;;;1.29;100.00;100644.22;5062722;28;19928;-74
2022/12/08 11:35:58;;;;;;;;;;;;;;;1.32;100.00;100645.06;5045817;28;20470;-74
2022/12/08 11:38:23;;;;;;;;;;;;;;;1.35;100.00;100639.81;5063462;28;19935;-73
2022/12/08 11:40:50;;;;;;;;;;;;;;;1.39;100.00;100640.66;5052006;28;20265;-74
2022/12/08 11:43:29;;;;;;;;;;;;;;;1.41;100.00;100646.72;5046004;28;20459;-74
2022/12/08 11:45:57;;;;;;;;;;;;;;;1.44;100.00;100638.88;5050862;28;19924;-74
2022/12/08 11:48:34;;;;;;;;;;;;;;;1.47;100.00;100644.03;5050176;28;19959;-73
2022/12/08 11:51:01;;;;;;;;;;;;;;;1.53;100.00;100647.47;5043994;28;19963;-73
2022/12/08 11:53:47;;;;;;;;;;;;;;;1.57;100.00;100644.81;5043640;28;19920;-74
2022/12/08 11:56:16;;;;;;;;;;;;;;;1.61;100.00;100646.50;5027353;28;19929;-74
2022/12/08 11:58:46;;;;;;;;;;;;;;;1.67;100.00;100650.78;5045538;28;19920;-74
2022/12/08 12:01:22;;;;;;;;;;;;;;;1.72;100.00;100646.38;5048762;28;19924;-73
2022/12/08 12:03:50;;;;;;;;;;;;;;;1.77;100.00;100646.31;5060893;28;20006;-73
2022/12/08 12:06:20;;;;;;;;;;;;;;;1.83;100.00;100640.16;5055357;28;19933;-73
2022/12/08 12:08:48;;;;;;;;;;;;;;;1.88;100.00;100648.78;5064844;28;20412;-73
2022/12/08 12:12:11;;;;;;;;;;;;;;;1.94;100.00;100643.50;5063079;28;19959;-73
2022/12/08 12:13:59;;;;;;;;;;;;;;;1.99;100.00;100653.88;5065630;28;20379;-73
2022/12/08 12:16:24;;;;;;;;;;;;;;;2.04;100.00;100639.03;5063808;28;19974;-74
2022/12/08 12:18:54;;;;;;;;;;;;;;;2.08;100.00;100643.34;5053700;28;20019;-74
2022/12/08 12:21:29;;;;;;;;;;;;;;;2.12;100.00;100636.31;5065680;28;19931;-73
2022/12/08 12:23:54;;;;;;;;;;;;;;;2.15;100.00;100642.38;5065118;28;19920;-74
2022/12/08 12:26:27;;;;;;;;;;;;;;;2.17;100.00;100642.31;5063133;28;19963;-74
2022/12/08 12:29:05;;;;;;;;;;;;;;;2.18;100.00;100638.81;5045419;28;21394;-73
2022/12/08 12:31:32;;;;;;;;;;;;;;;2.17;100.00;100635.38;5063642;28;20310;-73
2022/12/08 12:34:04;;;;;;;;;;;;;;;2.17;100.00;100634.47;5046850;28;19927;-73
2022/12/08 12:36:31;;;;;;;;;;;;;;;2.19;100.00;100637.97;5046101;28;19928;-73
2022/12/08 12:39:08;;;;;;;;;;;;;;;2.17;100.00;100630.13;5044838;28;19928;-73
2022/12/08 12:41:36;;;;;;;;;;;;;;;2.17;100.00;100630.13;5048124;28;19986;-74
2022/12/08 12:44:06;;;;;;;;;;;;;;;2.16;100.00;100627.53;5058500;28;20580;-73
2022/12/08 12:46:34;;;;;;;;;;;;;;;2.17;100.00;100634.47;5042800;28;19963;-74